Time;durP1;ratioP1;P1;durP2;ratioP2;P2;SDS_P1;SDS_P2;PMS_P1;PMS_P2;Temp;Humidity;BMP_temperature;BMP_pressure;BME280_temperature;BME280_humidity;BME280_pressure;Samples;Min_cycle;Max_cycle;Signal;HPM_P1;HPM_P2
2023/10/26 00:01:09;;;;;;;;;;;;;;;16.21;75.62;98845.03;3166687;28;19923;-65
2023/10/26 00:02:41;;;;;;;;;;;;;;;15.92;75.83;98803.66;3166199;28;20299;-66
2023/10/26 00:04:12;;;;;;;;;;;;;;;16.14;76.02;98842.91;3159802;28;19977;-65
2023/10/26 00:05:43;;;;;;;;;;;;;;;16.13;75.91;98849.13;3158975;28;19924;-66
2023/10/26 00:07:15;;;;;;;;;;;;;;;16.13;75.83;98851.75;3165859;28;20709;-66
2023/10/26 00:08:45;;;;;;;;;;;;;;;16.13;75.74;98854.38;3160908;28;20298;-66
2023/10/26 00:10:17;;;;;;;;;;;;;;;15.90;75.56;98806.41;3166514;28;19931;-66
2023/10/26 00:11:49;;;;;;;;;;;;;;;16.12;75.56;98842.22;3148271;28;19934;-66
2023/10/26 00:13:22;;;;;;;;;;;;;;;16.11;75.76;98843.16;3155211;28;19936;-66
2023/10/26 00:14:53;;;;;;;;;;;;;;;16.11;75.44;98847.59;3158695;28;19981;-66
2023/10/26 00:16:25;;;;;;;;;;;;;;;16.11;75.42;98845.78;3166199;28;20482;-66
2023/10/26 00:17:55;;;;;;;;;;;;;;;16.11;75.62;98844.97;3166135;28;19973;-66
2023/10/26 00:19:27;;;;;;;;;;;;;;;16.11;75.59;98843.16;3163031;28;20409;-66
2023/10/26 00:20:57;;;;;;;;;;;;;;;16.11;75.83;98839.72;3165195;28;19930;-66
2023/10/26 00:22:29;;;;;;;;;;;;;;;16.09;76.13;98833.75;3155829;28;20690;-66
2023/10/26 00:24:00;;;;;;;;;;;;;;;16.07;76.01;98815.50;3159623;28;20595;-64
2023/10/26 00:25:32;;;;;;;;;;;;;;;15.81;75.92;98766.97;3162416;28;19924;-64
2023/10/26 00:27:02;;;;;;;;;;;;;;;16.06;75.86;98805.97;3158223;28;19928;-63
2023/10/26 00:28:35;;;;;;;;;;;;;;;16.07;75.80;98812.06;3165281;28;19971;-65
2023/10/26 00:30:07;;;;;;;;;;;;;;;16.06;75.79;98819.09;3165821;28;20389;-63
2023/10/26 00:31:38;;;;;;;;;;;;;;;16.06;75.72;98824.34;3164820;28;20080;-64
2023/10/26 00:33:09;;;;;;;;;;;;;;;16.07;75.71;98822.56;3165761;28;19923;-65
2023/10/26 00:34:41;;;;;;;;;;;;;;;16.06;75.60;98829.59;3161929;28;19923;-65
2023/10/26 00:36:11;;;;;;;;;;;;;;;15.85;75.70;98798.09;3165431;28;19924;-65
2023/10/26 00:37:43;;;;;;;;;;;;;;;16.05;75.76;98832.34;3165681;28;20003;-64
2023/10/26 00:39:14;;;;;;;;;;;;;;;16.05;75.93;98829.72;3166195;28;19924;-65
2023/10/26 00:40:45;;;;;;;;;;;;;;;16.03;75.82;98829.88;3163582;28;20360;-64
2023/10/26 00:42:16;;;;;;;;;;;;;;;16.01;75.75;98834.41;3165916;28;19924;-64
2023/10/26 00:43:49;;;;;;;;;;;;;;;16.01;75.95;98831.78;3165953;28;19924;-65
2023/10/26 00:45:20;;;;;;;;;;;;;;;16.00;75.86;98827.50;3165869;28;19923;-64
2023/10/26 00:46:52;;;;;;;;;;;;;;;15.98;76.02;98829.41;3165591;28;19923;-64
2023/10/26 00:48:23;;;;;;;;;;;;;;;15.98;76.18;98824.16;3164044;28;19972;-63
2023/10/26 00:49:54;;;;;;;;;;;;;;;15.98;76.10;98824.16;3161566;28;20028;-63
2023/10/26 00:51:25;;;;;;;;;;;;;;;15.98;76.03;98813.66;3165627;28;19935;-65
2023/10/26 00:52:57;;;;;;;;;;;;;;;15.99;75.73;98817.09;3153085;28;19923;-63
2023/10/26 00:54:28;;;;;;;;;;;;;;;15.99;75.98;98817.94;3147033;28;20424;-64
2023/10/26 00:56:00;;;;;;;;;;;;;;;15.99;75.85;98807.44;3150065;28;19924;-63
2023/10/26 00:57:30;;;;;;;;;;;;;;;16.00;75.83;98805.63;3154946;28;19934;-63
2023/10/26 00:59:04;;;;;;;;;;;;;;;16.01;75.69;98807.31;3148259;28;20008;-62
2023/10/26 01:00:34;;;;;;;;;;;;;;;16.01;75.57;98804.69;3165955;28;19927;-63
2023/10/26 01:02:06;;;;;;;;;;;;;;;16.01;75.52;98797.63;3165528;28;20102;-63
2023/10/26 01:03:37;;;;;;;;;;;;;;;16.00;75.82;98784.63;3161210;27;19931;-64
2023/10/26 01:05:09;;;;;;;;;;;;;;;16.00;76.03;98784.63;3154234;28;19924;-63
2023/10/26 01:06:40;;;;;;;;;;;;;;;15.98;75.98;98779.50;3165620;28;20373;-63
2023/10/26 01:08:12;;;;;;;;;;;;;;;15.99;75.99;98781.16;3160992;28;20046;-63
2023/10/26 01:09:42;;;;;;;;;;;;;;;15.99;76.04;98796.91;3164164;28;19970;-63
2023/10/26 01:11:14;;;;;;;;;;;;;;;15.99;75.77;98794.28;3153523;28;20289;-63
2023/10/26 01:12:45;;;;;;;;;;;;;;;16.00;75.84;98795.13;3161860;28;20006;-63
2023/10/26 01:14:18;;;;;;;;;;;;;;;16.00;75.73;98795.97;3165389;28;20411;-66
2023/10/26 01:15:50;;;;;;;;;;;;;;;15.99;75.97;98796.91;3165530;28;19923;-63
2023/10/26 01:17:20;;;;;;;;;;;;;;;16.00;75.84;98800.38;3165208;28;19924;-64
2023/10/26 01:18:52;;;;;;;;;;;;;;;15.99;76.05;98791.66;3160750;28;20702;-64
2023/10/26 01:20:22;;;;;;;;;;;;;;;15.98;76.11;98791.81;3165503;28;19931;-64
2023/10/26 01:21:56;;;;;;;;;;;;;;;15.97;76.16;98796.22;3162776;28;20284;-64
2023/10/26 01:23:26;;;;;;;;;;;;;;;15.97;76.12;98800.63;3152361;28;19946;-62
2023/10/26 01:24:58;;;;;;;;;;;;;;;15.69;76.20;98755.69;3159345;28;19928;-62
2023/10/26 01:26:29;;;;;;;;;;;;;;;15.93;76.46;98808.75;3154486;28;19924;-63
2023/10/26 01:28:00;;;;;;;;;;;;;;;15.90;76.89;98821.31;3165476;28;19993;-63
2023/10/26 01:29:31;;;;;;;;;;;;;;;15.88;76.76;98824.09;3165237;28;19931;-63
2023/10/26 01:31:03;;;;;;;;;;;;;;;15.88;76.79;98823.22;3163133;28;19927;-63
2023/10/26 01:32:33;;;;;;;;;;;;;;;15.89;76.69;98817.03;3162010;28;20541;-63
2023/10/26 01:34:05;;;;;;;;;;;;;;;15.91;76.84;98825.59;3164361;28;19954;-63
2023/10/26 01:35:38;;;;;;;;;;;;;;;15.92;76.60;98819.41;3165185;28;19923;-63
2023/10/26 01:37:11;;;;;;;;;;;;;;;15.93;76.60;98813.19;3165104;28;20405;-63
2023/10/26 01:38:41;;;;;;;;;;;;;;;15.93;76.59;98800.88;3164891;28;19924;-63
2023/10/26 01:40:13;;;;;;;;;;;;;;;15.96;76.60;98806.84;3165549;27;20385;-63
2023/10/26 01:41:44;;;;;;;;;;;;;;;15.96;76.52;98820.81;3160656;28;20460;-63
2023/10/26 01:43:16;;;;;;;;;;;;;;;15.97;76.50;98827.72;3165280;28;19934;-63
2023/10/26 01:44:47;;;;;;;;;;;;;;;15.97;76.75;98819.84;3164855;28;19977;-63
2023/10/26 01:46:18;;;;;;;;;;;;;;;15.99;76.54;98823.19;3165323;28;19923;-63
2023/10/26 01:47:49;;;;;;;;;;;;;;;16.00;76.42;98824.00;3160812;28;20032;-62
2023/10/26 01:49:20;;;;;;;;;;;;;;;16.00;76.48;98824.88;3164929;28;20003;-63
2023/10/26 01:50:51;;;;;;;;;;;;;;;16.01;76.41;98829.16;3164660;28;19977;-63
2023/10/26 01:52:24;;;;;;;;;;;;;;;16.01;76.47;98823.91;3158940;28;20409;-63
2023/10/26 01:53:55;;;;;;;;;;;;;;;16.02;76.32;98822.94;3145611;28;20389;-64
2023/10/26 01:55:26;;;;;;;;;;;;;;;16.01;76.41;98815.19;3153491;28;19938;-62
2023/10/26 01:56:58;;;;;;;;;;;;;;;15.99;76.50;98819.72;3145728;28;20323;-63
2023/10/26 01:58:30;;;;;;;;;;;;;;;15.98;76.65;98824.16;3139732;28;19931;-63
2023/10/26 02:00:01;;;;;;;;;;;;;;;15.96;76.72;98822.59;3164640;28;20015;-63
2023/10/26 02:01:32;;;;;;;;;;;;;;;15.96;76.56;98819.97;3162197;28;19923;-62
2023/10/26 02:03:03;;;;;;;;;;;;;;;15.94;76.73;98814.84;3152304;28;19924;-63
2023/10/26 02:04:34;;;;;;;;;;;;;;;15.93;76.90;98823.69;3155254;28;19986;-62
2023/10/26 02:06:05;;;;;;;;;;;;;;;15.92;76.91;98822.03;3160759;28;19939;-62
2023/10/26 02:07:39;;;;;;;;;;;;;;;15.90;77.06;98823.94;3164932;28;19973;-62
2023/10/26 02:09:09;;;;;;;;;;;;;;;15.90;77.09;98831.81;3164974;28;20408;-63
2023/10/26 02:10:41;;;;;;;;;;;;;;;15.89;77.43;98835.41;3161750;28;19924;-63
2023/10/26 02:12:12;;;;;;;;;;;;;;;15.86;77.46;98817.28;3155156;28;19927;-63
2023/10/26 02:13:44;;;;;;;;;;;;;;;15.86;77.29;98822.53;3169475;28;19923;-63
2023/10/26 02:15:14;;;;;;;;;;;;;;;15.87;77.23;98822.41;3170309;28;19972;-62
2023/10/26 02:16:46;;;;;;;;;;;;;;;15.86;77.30;98830.44;3165741;28;19927;-62
2023/10/26 02:18:16;;;;;;;;;;;;;;;15.86;77.08;98826.00;3170040;28;19935;-62
2023/10/26 02:19:48;;;;;;;;;;;;;;;15.87;77.18;98800.56;3169334;28;19919;-64
2023/10/26 02:21:18;;;;;;;;;;;;;;;15.87;77.02;98800.56;3169829;28;19920;-64
2023/10/26 02:22:51;;;;;;;;;;;;;;;15.88;77.06;98802.22;3154492;28;20359;-64
2023/10/26 02:24:22;;;;;;;;;;;;;;;15.86;77.20;98812.88;3144664;28;19920;-65
2023/10/26 02:25:54;;;;;;;;;;;;;;;15.86;77.20;98814.66;3161882;28;19924;-62
2023/10/26 02:27:24;;;;;;;;;;;;;;;15.86;76.99;98809.41;3167319;28;20785;-64
2023/10/26 02:28:56;;;;;;;;;;;;;;;15.86;77.18;98809.41;3169331;28;19919;-62
2023/10/26 02:30:26;;;;;;;;;;;;;;;15.84;77.20;98809.53;3169611;28;19923;-64
2023/10/26 02:31:58;;;;;;;;;;;;;;;15.83;76.96;98800.00;3157208;28;19924;-61
2023/10/26 02:33:28;;;;;;;;;;;;;;;15.84;76.89;98806.06;3165114;28;19926;-61
2023/10/26 02:35:00;;;;;;;;;;;;;;;15.83;76.99;98804.44;3169934;28;19923;-61
2023/10/26 02:36:30;;;;;;;;;;;;;;;15.83;77.07;98807.06;3169737;28;19931;-61
2023/10/26 02:38:03;;;;;;;;;;;;;;;15.82;77.09;98800.94;3169295;28;19924;-61
2023/10/26 02:39:34;;;;;;;;;;;;;;;15.83;77.09;98799.19;3169569;28;19920;-61
2023/10/26 02:41:05;;;;;;;;;;;;;;;15.78;77.43;98791.66;3167158;28;19999;-61
2023/10/26 02:42:38;;;;;;;;;;;;;;;15.76;77.60;98792.75;3169827;28;20290;-61
2023/10/26 02:44:10;;;;;;;;;;;;;;;15.75;77.92;98794.53;3169724;28;19924;-61
2023/10/26 02:45:40;;;;;;;;;;;;;;;15.74;77.81;98794.69;3164733;28;19926;-61
2023/10/26 02:47:12;;;;;;;;;;;;;;;15.74;77.74;98785.00;3169984;28;19930;-64
2023/10/26 02:48:42;;;;;;;;;;;;;;;15.75;77.91;98788.47;3170017;28;19939;-63
2023/10/26 02:50:14;;;;;;;;;;;;;;;15.75;77.72;98786.66;3169861;28;19920;-64
2023/10/26 02:51:44;;;;;;;;;;;;;;;15.76;77.81;98784.88;3169392;28;20346;-65
2023/10/26 02:53:17;;;;;;;;;;;;;;;15.76;77.59;98787.50;3151891;28;20007;-64
2023/10/26 02:54:49;;;;;;;;;;;;;;;15.50;77.94;98739.75;3159643;28;19920;-64
2023/10/26 02:56:20;;;;;;;;;;;;;;;15.46;77.80;98745.25;3151679;28;19927;-64
2023/10/26 02:57:51;;;;;;;;;;;;;;;15.73;77.90;98799.06;3159446;28;19923;-64
2023/10/26 02:59:22;;;;;;;;;;;;;;;15.73;77.74;98804.31;3157915;28;19920;-64
2023/10/26 03:00:54;;;;;;;;;;;;;;;15.73;77.70;98800.88;3159855;28;19990;-63
2023/10/26 03:02:25;;;;;;;;;;;;;;;15.74;77.76;98803.38;3162444;28;19993;-63
2023/10/26 03:03:56;;;;;;;;;;;;;;;15.75;77.78;98801.59;3165273;28;19928;-63
2023/10/26 03:05:27;;;;;;;;;;;;;;;15.75;77.80;98780.59;3157073;28;19923;-64
2023/10/26 03:06:58;;;;;;;;;;;;;;;15.75;78.00;98777.97;3166449;28;19928;-65
2023/10/26 03:08:31;;;;;;;;;;;;;;;15.70;78.39;98780.97;3158587;28;20377;-62
2023/10/26 03:10:01;;;;;;;;;;;;;;;15.67;79.12;98781.19;3169006;28;19923;-64
2023/10/26 03:11:33;;;;;;;;;;;;;;;15.64;79.62;98784.06;3150395;28;20288;-63
2023/10/26 03:13:04;;;;;;;;;;;;;;;15.61;79.64;98793.00;3160097;28;20010;-64
2023/10/26 03:14:36;;;;;;;;;;;;;;;15.62;79.59;98797.31;3158156;28;19964;-64
2023/10/26 03:16:07;;;;;;;;;;;;;;;15.63;79.43;98798.97;3159232;28;19924;-64
2023/10/26 03:17:38;;;;;;;;;;;;;;;15.63;79.48;98785.84;3159322;28;19931;-63
2023/10/26 03:19:09;;;;;;;;;;;;;;;15.62;79.87;98783.38;3157317;28;19924;-63
2023/10/26 03:20:41;;;;;;;;;;;;;;;15.60;79.98;98780.84;3157069;28;20018;-63
2023/10/26 03:22:11;;;;;;;;;;;;;;;15.54;80.44;98781.38;3156961;28;19927;-63
2023/10/26 03:23:44;;;;;;;;;;;;;;;15.48;80.93;98781.88;3157267;28;20334;-63
2023/10/26 03:25:16;;;;;;;;;;;;;;;15.44;81.18;98793.59;3158824;28;20304;-63
2023/10/26 03:26:48;;;;;;;;;;;;;;;15.40;81.39;98792.16;3161532;28;19919;-63
2023/10/26 03:28:18;;;;;;;;;;;;;;;15.37;81.24;98797.66;3168937;28;21279;-63
2023/10/26 03:29:50;;;;;;;;;;;;;;;15.36;81.39;98796.00;3169555;28;19923;-62
2023/10/26 03:31:20;;;;;;;;;;;;;;;15.35;81.50;98789.06;3159799;28;20443;-64
2023/10/26 03:32:52;;;;;;;;;;;;;;;15.35;81.37;98784.66;3171819;28;20010;-63
2023/10/26 03:34:22;;;;;;;;;;;;;;;15.37;81.07;98793.22;3146949;28;19924;-63
2023/10/26 03:35:54;;;;;;;;;;;;;;;15.39;80.91;98786.06;3169891;28;19926;-62
2023/10/26 03:37:24;;;;;;;;;;;;;;;15.41;80.69;98778.91;3171990;28;19927;-63
2023/10/26 03:38:57;;;;;;;;;;;;;;;15.43;80.51;98776.16;3171935;28;20246;-63
2023/10/26 03:40:29;;;;;;;;;;;;;;;14.88;80.83;98688.84;3171723;28;20265;-62
2023/10/26 03:42:00;;;;;;;;;;;;;;;15.38;81.29;98788.81;3164173;28;19963;-62
2023/10/26 03:43:31;;;;;;;;;;;;;;;15.32;81.65;98786.69;3171732;28;19928;-63
2023/10/26 03:45:02;;;;;;;;;;;;;;;15.29;81.58;98790.38;3172043;28;19924;-63
2023/10/26 03:46:34;;;;;;;;;;;;;;;15.23;81.60;98783.00;3168528;28;19919;-62
2023/10/26 03:48:05;;;;;;;;;;;;;;;15.16;81.77;98782.69;3171567;28;20350;-62
2023/10/26 03:49:37;;;;;;;;;;;;;;;15.08;81.89;98774.59;3171930;28;19927;-62
2023/10/26 03:51:08;;;;;;;;;;;;;;;15.04;81.74;98775.78;3169273;28;19973;-62
2023/10/26 03:52:39;;;;;;;;;;;;;;;15.00;81.73;98769.97;3158938;28;20397;-62
2023/10/26 03:54:12;;;;;;;;;;;;;;;14.95;81.97;98771.28;3155777;28;19928;-61
2023/10/26 03:55:43;;;;;;;;;;;;;;;14.94;81.89;98770.47;3147215;28;19921;-62
2023/10/26 03:57:14;;;;;;;;;;;;;;;14.94;81.75;98769.63;3158507;28;19924;-63
2023/10/26 03:58:46;;;;;;;;;;;;;;;14.90;81.88;98765.56;3152755;28;19920;-63
2023/10/26 04:00:17;;;;;;;;;;;;;;;14.87;81.54;98760.56;3156948;28;19931;-65
2023/10/26 04:01:48;;;;;;;;;;;;;;;14.86;81.74;98756.28;3158433;28;19924;-66
2023/10/26 04:03:19;;;;;;;;;;;;;;;14.83;81.35;98738.19;3160069;28;19928;-60
2023/10/26 04:04:51;;;;;;;;;;;;;;;14.81;81.49;98732.22;3158577;28;20403;-61
2023/10/26 04:06:21;;;;;;;;;;;;;;;14.81;81.68;98732.22;3171450;28;20311;-63
2023/10/26 04:07:54;;;;;;;;;;;;;;;14.79;81.46;98730.56;3171369;28;20006;-63
2023/10/26 04:09:25;;;;;;;;;;;;;;;14.78;81.30;98730.69;3171188;27;19998;-63
2023/10/26 04:10:57;;;;;;;;;;;;;;;14.78;81.17;98733.31;3155071;28;20015;-65
2023/10/26 04:12:28;;;;;;;;;;;;;;;14.76;81.31;98749.16;3160645;28;19935;-66
2023/10/26 04:13:59;;;;;;;;;;;;;;;14.76;81.00;98751.78;3169161;28;19923;-66
2023/10/26 04:15:31;;;;;;;;;;;;;;;14.76;81.08;98750.97;3152369;28;19954;-66
2023/10/26 04:17:04;;;;;;;;;;;;;;;14.75;81.29;98752.72;3159080;28;19931;-66
2023/10/26 04:18:36;;;;;;;;;;;;;;;14.77;81.22;98752.63;3159123;28;19920;-66
2023/10/26 04:20:07;;;;;;;;;;;;;;;14.79;81.33;98761.19;3158762;28;19928;-69
2023/10/26 04:21:39;;;;;;;;;;;;;;;14.82;81.17;98774.06;3159142;28;19931;-67
2023/10/26 04:23:09;;;;;;;;;;;;;;;14.86;80.71;98772.03;3158550;28;19920;-72
2023/10/26 04:24:42;;;;;;;;;;;;;;;14.87;80.74;98777.13;3169222;28;19920;-63
2023/10/26 04:26:13;;;;;;;;;;;;;;;14.68;80.56;98748.09;3159461;28;19920;-63
2023/10/26 04:27:45;;;;;;;;;;;;;;;14.91;80.83;98781.19;3158902;28;20326;-69
2023/10/26 04:29:16;;;;;;;;;;;;;;;14.93;80.66;98789.75;3155770;28;19963;-67
2023/10/26 04:30:47;;;;;;;;;;;;;;;14.94;80.83;98780.94;3164345;28;19927;-74
2023/10/26 04:32:19;;;;;;;;;;;;;;;14.92;80.69;98772.38;3165456;28;20320;-71
2023/10/26 04:33:49;;;;;;;;;;;;;;;14.93;80.58;98773.19;3171083;28;19919;-71
2023/10/26 04:35:21;;;;;;;;;;;;;;;14.93;80.34;98771.41;3171184;28;19930;-71
2023/10/26 04:36:51;;;;;;;;;;;;;;;14.94;80.45;98753.91;3171324;28;20366;-77
2023/10/26 04:38:23;;;;;;;;;;;;;;;14.94;80.30;98759.97;3171446;27;20001;-69
2023/10/26 04:39:56;;;;;;;;;;;;;;;14.95;80.28;98761.63;3171236;28;19920;-75
2023/10/26 04:41:27;;;;;;;;;;;;;;;14.98;80.24;98768.41;3159265;28;20443;-75
2023/10/26 04:42:59;;;;;;;;;;;;;;;14.98;80.25;98765.81;3170136;28;19926;-74
2023/10/26 04:44:30;;;;;;;;;;;;;;;14.99;80.09;98763.03;3161997;28;19919;-70
2023/10/26 04:46:01;;;;;;;;;;;;;;;15.00;80.15;98754.25;3168366;28;19933;-71
2023/10/26 04:47:32;;;;;;;;;;;;;;;15.04;80.19;98754.81;3158526;28;19920;-77
2023/10/26 04:49:03;;;;;;;;;;;;;;;15.06;80.16;98758.16;3158243;28;20355;-71
2023/10/26 04:50:34;;;;;;;;;;;;;;;15.07;80.12;98756.38;3158466;28;19924;-72
2023/10/26 04:52:06;;;;;;;;;;;;;;;15.06;80.12;98752.91;3159418;28;20065;-71
2023/10/26 04:53:37;;;;;;;;;;;;;;;15.07;79.81;98751.94;3159718;28;20356;-73
2023/10/26 04:55:18;;;;;;;;;;;;;;;15.07;79.82;98751.94;3168554;28;19920;-71
2023/10/26 04:56:49;;;;;;;;;;;;;;;15.08;79.88;98758.84;3165935;28;19928;-75
2023/10/26 04:58:36;;;;;;;;;;;;;;;15.08;79.80;98756.22;3154159;28;19943;-75
2023/10/26 05:00:09;;;;;;;;;;;;;;;15.09;79.89;98765.78;3159343;28;20038;-72
2023/10/26 05:01:40;;;;;;;;;;;;;;;14.88;79.65;98725.53;3158410;28;20350;-72
2023/10/26 05:03:12;;;;;;;;;;;;;;;15.10;79.68;98764.81;3166376;28;19924;-70
2023/10/26 05:04:45;;;;;;;;;;;;;;;15.10;79.61;98772.69;3166186;28;19951;-72
2023/10/26 05:06:16;;;;;;;;;;;;;;;15.11;79.88;98776.13;3164748;28;20029;-70
2023/10/26 05:07:48;;;;;;;;;;;;;;;15.11;79.58;98782.19;3168402;28;19931;-72
2023/10/26 05:09:18;;;;;;;;;;;;;;;15.13;79.52;98795.22;3170869;28;19923;-71
2023/10/26 05:10:51;;;;;;;;;;;;;;;15.13;79.68;98792.59;3164655;28;20002;-73
2023/10/26 05:12:23;;;;;;;;;;;;;;;15.12;79.91;98786.50;3158173;28;19920;-72
2023/10/26 05:13:54;;;;;;;;;;;;;;;15.10;79.88;98796.28;3163712;27;20258;-73
2023/10/26 05:15:25;;;;;;;;;;;;;;;15.10;80.12;98803.31;3157804;28;19926;-73
2023/10/26 05:16:56;;;;;;;;;;;;;;;15.05;80.57;98808.09;3168886;28;20380;-71
2023/10/26 05:18:28;;;;;;;;;;;;;;;15.02;80.83;98807.41;3170775;28;19928;-71
2023/10/26 05:19:59;;;;;;;;;;;;;;;15.00;80.95;98797.97;3170770;28;19924;-72
2023/10/26 05:21:31;;;;;;;;;;;;;;;15.00;81.14;98798.81;3160196;28;19924;-70
2023/10/26 05:23:02;;;;;;;;;;;;;;;15.04;81.07;98801.19;3157913;28;20354;-69
2023/10/26 05:24:34;;;;;;;;;;;;;;;15.04;80.85;98798.56;3166624;28;19919;-67
2023/10/26 05:26:07;;;;;;;;;;;;;;;15.06;80.90;98799.28;3160989;28;20401;-70
2023/10/26 05:27:38;;;;;;;;;;;;;;;15.09;80.92;98801.66;3155134;28;19920;-73
2023/10/26 05:29:09;;;;;;;;;;;;;;;15.12;80.77;98790.94;3155999;28;20069;-73
2023/10/26 05:30:40;;;;;;;;;;;;;;;15.14;80.56;98791.63;3159162;28;19926;-72
2023/10/26 05:32:12;;;;;;;;;;;;;;;15.15;80.54;98783.63;3158674;28;19946;-71
2023/10/26 05:33:44;;;;;;;;;;;;;;;15.15;80.67;98785.44;3160473;28;19928;-72
2023/10/26 05:35:14;;;;;;;;;;;;;;;15.17;80.47;98780.88;3170574;28;19969;-72
2023/10/26 05:36:46;;;;;;;;;;;;;;;15.19;80.33;98784.22;3161088;28;20027;-71
2023/10/26 05:38:19;;;;;;;;;;;;;;;15.20;80.48;98785.88;3165709;28;20484;-72
2023/10/26 05:39:50;;;;;;;;;;;;;;;15.19;80.57;98795.53;3169906;28;19982;-71
2023/10/26 05:41:22;;;;;;;;;;;;;;;15.19;80.74;98790.28;3154726;28;19924;-74
2023/10/26 05:42:54;;;;;;;;;;;;;;;15.18;81.01;98799.13;3150791;28;20019;-75
2023/10/26 05:44:25;;;;;;;;;;;;;;;15.19;81.04;98810.44;3151106;28;19973;-76
2023/10/26 05:46:02;;;;;;;;;;;;;;;15.18;81.38;98819.28;3151972;28;20122;-76
2023/10/26 05:47:35;;;;;;;;;;;;;;;15.14;82.05;98826.53;3151271;28;19930;-75
2023/10/26 05:49:06;;;;;;;;;;;;;;;15.11;82.12;98828.56;3147948;28;19928;-75
2023/10/26 05:50:41;;;;;;;;;;;;;;;15.08;82.50;98831.44;3149555;28;20366;-74
2023/10/26 05:52:12;;;;;;;;;;;;;;;15.07;82.33;98824.53;3151302;28;19924;-73
2023/10/26 05:53:44;;;;;;;;;;;;;;;15.07;82.50;98820.13;3150744;28;20418;-74
2023/10/26 05:55:14;;;;;;;;;;;;;;;15.09;82.63;98831.34;3149233;28;20425;-73
2023/10/26 05:56:47;;;;;;;;;;;;;;;15.10;82.76;98843.47;3152611;28;19924;-74
2023/10/26 05:58:18;;;;;;;;;;;;;;;15.10;82.68;98853.97;3153347;28;19919;-74
2023/10/26 05:59:50;;;;;;;;;;;;;;;15.09;83.02;98852.31;3162504;28;19924;-74
2023/10/26 06:01:20;;;;;;;;;;;;;;;15.11;82.81;98854.78;3151062;28;19931;-74
2023/10/26 06:02:52;;;;;;;;;;;;;;;15.12;82.96;98859.94;3150239;28;19943;-74
2023/10/26 06:04:23;;;;;;;;;;;;;;;15.14;83.04;98865.03;3151876;28;19951;-76
2023/10/26 06:05:58;;;;;;;;;;;;;;;15.15;82.94;98861.50;3158502;28;19924;-73
2023/10/26 06:07:29;;;;;;;;;;;;;;;15.18;82.80;98869.94;3151007;28;19920;-72
2023/10/26 06:09:00;;;;;;;;;;;;;;;15.22;82.57;98862.66;3154244;28;20408;-75
2023/10/26 06:10:31;;;;;;;;;;;;;;;15.25;82.87;98858.00;3163065;28;19923;-73
2023/10/26 06:12:04;;;;;;;;;;;;;;;15.27;82.66;98857.88;3147311;28;19923;-70
2023/10/26 06:13:35;;;;;;;;;;;;;;;15.32;82.55;98857.50;3150906;28;19924;-77
2023/10/26 06:15:08;;;;;;;;;;;;;;;15.34;82.45;98856.44;3157549;28;20309;-72
2023/10/26 06:16:38;;;;;;;;;;;;;;;15.37;82.53;98852.72;3168878;28;20383;-73
2023/10/26 06:18:12;;;;;;;;;;;;;;;15.39;82.59;98846.41;3152325;28;19920;-72
2023/10/26 06:19:43;;;;;;;;;;;;;;;15.40;82.29;98842.00;3149875;28;19924;-72
2023/10/26 06:21:14;;;;;;;;;;;;;;;15.42;82.44;98837.47;3157205;28;19965;-70
2023/10/26 06:22:45;;;;;;;;;;;;;;;15.44;82.63;98835.56;3160269;28;19924;-74
2023/10/26 06:24:17;;;;;;;;;;;;;;;15.45;82.48;98840.66;3151113;28;19938;-72
2023/10/26 06:25:47;;;;;;;;;;;;;;;15.50;82.69;98849.94;3156789;28;19992;-75
2023/10/26 06:27:21;;;;;;;;;;;;;;;15.53;82.55;98855.81;3147960;28;19966;-74
2023/10/26 06:28:53;;;;;;;;;;;;;;;15.56;82.26;98855.56;3149477;28;20291;-72
2023/10/26 06:30:25;;;;;;;;;;;;;;;15.61;82.05;98863.03;3146858;28;19973;-73
2023/10/26 06:31:55;;;;;;;;;;;;;;;15.64;82.07;98865.41;3153838;28;19966;-74
2023/10/26 06:33:34;;;;;;;;;;;;;;;15.67;81.87;98873.91;3154838;28;19924;-71
2023/10/26 06:35:08;;;;;;;;;;;;;;;15.71;81.96;98878.94;3153046;28;20385;-74
2023/10/26 06:36:40;;;;;;;;;;;;;;;15.72;81.92;98872.72;3159300;28;19923;-72
2023/10/26 06:38:21;;;;;;;;;;;;;;;15.75;81.67;98875.91;3162469;28;19927;-73
2023/10/26 06:40:03;;;;;;;;;;;;;;;15.78;81.80;98880.09;3148804;28;19924;-73
2023/10/26 06:41:42;;;;;;;;;;;;;;;15.80;81.67;98888.69;3153262;28;20419;-72
2023/10/26 06:43:20;;;;;;;;;;;;;;;15.83;81.89;98888.44;3159043;28;20293;-71
2023/10/26 06:44:51;;;;;;;;;;;;;;;15.85;81.90;98882.09;3152655;28;19928;-75
2023/10/26 06:46:22;;;;;;;;;;;;;;;15.88;81.96;98878.38;3150156;28;19924;-72
2023/10/26 06:47:55;;;;;;;;;;;;;;;15.92;81.99;98879.81;3158040;28;20614;-74
2023/10/26 06:49:25;;;;;;;;;;;;;;;15.96;81.65;98878.56;3161395;28;19935;-71
2023/10/26 06:50:57;;;;;;;;;;;;;;;16.01;81.37;98871.16;3151870;28;20010;-70
2023/10/26 06:52:29;;;;;;;;;;;;;;;16.05;81.21;98862.06;3149475;28;19924;-73
2023/10/26 06:54:01;;;;;;;;;;;;;;;16.09;80.88;98849.50;3166927;28;19920;-76
2023/10/26 06:55:32;;;;;;;;;;;;;;;16.11;80.96;98843.16;3152710;28;19924;-74
2023/10/26 06:57:07;;;;;;;;;;;;;;;16.15;80.79;98843.78;3150409;28;19924;-73
2023/10/26 06:59:09;;;;;;;;;;;;;;;16.18;80.57;98843.50;3151657;28;20393;-72
2023/10/26 07:00:46;;;;;;;;;;;;;;;16.22;80.58;98850.16;3153839;28;19924;-73
2023/10/26 07:02:33;;;;;;;;;;;;;;;16.26;80.59;98853.34;3152684;28;19924;-72
2023/10/26 07:04:13;;;;;;;;;;;;;;;16.30;80.30;98852.16;3147840;28;19924;-70
2023/10/26 07:06:06;;;;;;;;;;;;;;;16.34;80.23;98853.56;3156325;28;20354;-73
2023/10/26 07:07:39;;;;;;;;;;;;;;;16.37;80.30;98851.50;3157656;28;19925;-70
2023/10/26 07:09:19;;;;;;;;;;;;;;;16.40;80.38;98853.03;3171948;28;19920;-71
2023/10/26 07:10:54;;;;;;;;;;;;;;;16.43;80.20;98854.56;3159862;28;20180;-70
2023/10/26 07:12:31;;;;;;;;;;;;;;;16.46;80.25;98856.94;3152501;28;19920;-72
2023/10/26 07:14:02;;;;;;;;;;;;;;;16.48;80.04;98853.22;3155266;28;19985;-68
2023/10/26 07:16:01;;;;;;;;;;;;;;;16.52;79.88;98869.56;3168134;28;19927;-68
2023/10/26 07:17:38;;;;;;;;;;;;;;;16.55;79.82;98869.31;3154931;28;19954;-71
2023/10/26 07:21:22;;;;;;;;;;;;;;;16.21;79.65;98795.97;3161170;28;20425;-73
2023/10/26 07:22:56;;;;;;;;;;;;;;;16.61;79.47;98859.09;3151063;28;20372;-73
2023/10/26 07:24:32;;;;;;;;;;;;;;;16.64;79.51;98859.81;3166451;28;19923;-74
2023/10/26 07:26:03;;;;;;;;;;;;;;;16.65;79.49;98862.28;3162968;27;19924;-71
2023/10/26 07:27:42;;;;;;;;;;;;;;;16.66;79.46;98866.59;3150839;28;19931;-71
2023/10/26 07:29:26;;;;;;;;;;;;;;;16.67;79.38;98851.66;3152448;28;20348;-69
2023/10/26 07:31:07;;;;;;;;;;;;;;;16.70;79.40;98857.47;3156391;28;20025;-68
2023/10/26 07:32:48;;;;;;;;;;;;;;;16.73;79.33;98845.88;3152901;28;20242;-69
2023/10/26 07:34:26;;;;;;;;;;;;;;;16.75;79.42;98846.59;3151563;28;20334;-71
2023/10/26 07:36:00;;;;;;;;;;;;;;;16.79;79.35;98845.38;3165947;28;20414;-72
2023/10/26 07:37:34;;;;;;;;;;;;;;;16.85;79.04;98850.09;3158407;28;19936;-70
2023/10/26 07:41:08;;;;;;;;;;;;;;;17.02;78.95;98857.38;3151257;28;19925;-69
2023/10/26 07:44:41;;;;;;;;;;;;;;;17.34;78.08;98839.75;3142629;28;19947;-70
2023/10/26 07:46:13;;;;;;;;;;;;;;;17.50;77.80;98840.84;3163859;28;19946;-71
2023/10/26 07:47:46;;;;;;;;;;;;;;;17.66;77.13;98845.59;3166700;28;20321;-69
2023/10/26 07:49:16;;;;;;;;;;;;;;;17.77;76.69;98833.25;3154018;28;19947;-74
2023/10/26 07:50:48;;;;;;;;;;;;;;;17.83;76.41;98841.47;3161380;28;20509;-77
2023/10/26 07:52:19;;;;;;;;;;;;;;;17.87;76.18;98837.59;3171590;28;20066;-69
2023/10/26 07:53:51;;;;;;;;;;;;;;;17.92;76.30;98824.00;3155426;28;19928;-76
2023/10/26 07:55:22;;;;;;;;;;;;;;;18.01;76.10;98806.53;3153276;28;20027;-77
2023/10/26 07:56:53;;;;;;;;;;;;;;;18.11;75.80;98810.81;3155487;28;20423;-71
2023/10/26 07:58:25;;;;;;;;;;;;;;;18.22;75.54;98812.47;3150009;28;20006;-67
2023/10/26 07:59:56;;;;;;;;;;;;;;;18.38;75.52;98817.97;3148959;28;20316;-67
2023/10/26 08:01:29;;;;;;;;;;;;;;;18.78;75.55;98830.09;3157198;28;19928;-66
2023/10/26 08:03:01;;;;;;;;;;;;;;;19.24;74.47;98846.78;3171958;28;19931;-66
2023/10/26 08:04:32;;;;;;;;;;;;;;;19.62;72.89;98851.97;3157289;28;19981;-67
2023/10/26 08:06:06;;;;;;;;;;;;;;;20.07;71.52;98845.78;3153978;28;19999;-66
2023/10/26 08:07:58;;;;;;;;;;;;;;;20.58;70.07;98833.59;3166163;28;19924;-66